| time (UTC) | temp F | wind direction | speed MPH | gust MPH | rain 1hr in | rain 24hr in | rain mn in | humidity % | barometer mb |
| 20260510230059 | 88 | 153 | 2.0 | 13.0 | 0.00 | 1.43 | 0.00 | 74 | 1012.0 |
| 20260510224601 | 89 | 149 | 2.0 | 11.0 | 0.00 | 1.43 | 0.00 | 73 | 1012.1 |
| 20260510223107 | 90 | 157 | 1.0 | 8.0 | 0.00 | 1.43 | 0.00 | 70 | 1012.1 |
| 20260510221558 | 92 | 32 | 1.0 | 4.0 | 0.00 | 1.43 | 0.00 | 68 | 1012.2 |
| 20260510220058 | 92 | 119 | 3.0 | 9.0 | 0.00 | 1.43 | 0.00 | 67 | 1012.2 |
| 20260510214558 | 93 | 166 | 2.0 | 7.0 | 0.00 | 1.43 | 0.00 | 66 | 1012.3 |
| 20260510213058 | 92 | 138 | 0.0 | 7.0 | 0.00 | 1.43 | 0.00 | 68 | 1012.4 |
| 20260510211600 | 92 | 130 | 1.0 | 4.0 | 0.00 | 1.43 | 0.00 | 67 | 1012.4 |
| 20260510210058 | 92 | 155 | 3.0 | 8.0 | 0.00 | 1.43 | 0.00 | 69 | 1012.4 |
| 20260510204558 | 92 | 115 | 1.0 | 5.0 | 0.00 | 1.43 | 0.00 | 67 | 1012.4 |
| 20260510203057 | 92 | 52 | 2.0 | 5.0 | 0.00 | 1.43 | 0.00 | 68 | 1012.3 |
| 20260510201627 | 92 | 161 | 1.0 | 6.0 | 0.00 | 1.43 | 0.00 | 68 | 1012.2 |
| 20260510200059 | 92 | 131 | 1.0 | 7.0 | 0.00 | 1.43 | 0.00 | 68 | 1012.2 |
| 20260510194604 | 92 | 168 | 2.0 | 5.0 | 0.00 | 1.43 | 0.00 | 67 | 1012.4 |
| 20260510193057 | 92 | 61 | 1.0 | 5.0 | 0.00 | 1.43 | 0.00 | 67 | 1012.5 |
| 20260510193003 | 92 | 150 | 1.0 | 6.0 | 0.00 | 1.43 | 0.00 | 68 | 1012.5 |
| 20260510191502 | 91 | 119 | 0.0 | 5.0 | 0.00 | 1.43 | 0.00 | 68 | 1012.6 |
| 20260510190005 | 91 | 167 | 1.0 | 7.0 | 0.00 | 1.43 | 0.00 | 70 | 1012.6 |
| 20260510184505 | 90 | 128 | 1.0 | 5.0 | 0.00 | 1.43 | 0.00 | 72 | 1012.6 |
| 20260510183109 | 89 | 172 | 3.0 | 7.0 | 0.00 | 1.43 | 0.00 | 73 | 1012.9 |
| 20260510181503 | 89 | 93 | 2.0 | 7.0 | 0.00 | 1.43 | 0.00 | 71 | 1013.1 |
| 20260510180002 | 89 | 137 | 3.0 | 6.0 | 0.00 | 1.43 | 0.00 | 72 | 1013.2 |
| 20260510174600 | 89 | 55 | 1.0 | 4.0 | 0.00 | 1.43 | 0.00 | 70 | 1013.3 |
| 20260510174501 | 89 | 53 | 0.0 | 3.0 | 0.00 | 1.43 | 0.00 | 72 | 1013.3 |
| 20260510173002 | 89 | 107 | 0.0 | 4.0 | 0.00 | 1.43 | 0.00 | 70 | 1013.6 |
| 20260510171603 | 88 | 52 | 1.0 | 5.0 | 0.00 | 1.43 | 0.00 | 72 | 1013.7 |
| 20260510170002 | 87 | 132 | 0.0 | 4.0 | 0.00 | 1.43 | 0.00 | 77 | 1013.9 |
| 20260510164603 | 86 | 63 | 0.0 | 5.0 | 0.00 | 1.43 | 0.00 | 77 | 1014.1 |
| 20260510163102 | 86 | 60 | 2.0 | 5.0 | 0.00 | 1.43 | 0.00 | 76 | 1014.1 |
| 20260510161501 | 85 | 101 | 0.0 | 5.0 | 0.00 | 1.43 | 0.00 | 80 | 1014.2 |
| 20260510160151 | 84 | 54 | 0.0 | 4.0 | 0.00 | 1.43 | 0.00 | 84 | 1014.5 |
| 20260510160003 | 83 | 54 | 0.0 | 4.0 | 0.00 | 1.43 | 0.00 | 84 | 1014.6 |
| 20260510154613 | 82 | 51 | 0.0 | 4.0 | 0.00 | 1.43 | 0.00 | 84 | 1014.8 |
| 20260510154501 | 82 | 51 | 0.0 | 4.0 | 0.00 | 1.43 | 0.00 | 84 | 1014.7 |
| 20260510153100 | 82 | 118 | 0.0 | 3.0 | 0.00 | 1.43 | 0.00 | 85 | 1014.9 |
| 20260510151616 | 82 | 40 | 1.0 | 5.0 | 0.00 | 1.43 | 0.00 | 86 | 1014.9 |
| 20260510150003 | 80 | 87 | 0.0 | 3.0 | 0.00 | 1.43 | 0.00 | 89 | 1014.8 |
| 20260510144601 | 80 | 54 | 0.0 | 4.0 | 0.00 | 1.43 | 0.00 | 91 | 1014.9 |
| 20260510141600 | 77 | 78 | 0.0 | 3.0 | 0.00 | 1.43 | 0.00 | 93 | 1014.6 |
| 20260510141502 | 77 | 81 | 0.0 | 3.0 | 0.00 | 1.43 | 0.00 | 93 | 1014.6 |
| 20260510134607 | 76 | 93 | 0.0 | 2.0 | 0.00 | 1.43 | 0.00 | 94 | 1014.1 |
| 20260510133103 | 76 | 119 | 0.0 | 4.0 | 0.00 | 1.43 | 0.00 | 94 | 1014.1 |
| 20260510133003 | 76 | 119 | 0.0 | 4.0 | 0.00 | 1.43 | 0.00 | 94 | 1014.0 |
| 20260510131600 | 75 | 129 | 0.0 | 2.0 | 0.00 | 1.43 | 0.00 | 95 | 1013.8 |
| 20260510124605 | 75 | 132 | 0.0 | 2.0 | 0.00 | 1.43 | 0.00 | 95 | 1013.1 |
| 20260510124501 | 75 | 132 | 0.0 | 0.0 | 0.00 | 1.43 | 0.00 | 95 | 1013.1 |
| 20260510123100 | 74 | 132 | 0.0 | 0.0 | 0.00 | 1.43 | 0.00 | 95 | 1012.8 |
| 20260510121601 | 74 | 132 | 0.0 | 2.0 | 0.00 | 1.43 | 0.00 | 94 | 1012.4 |
| 20260510121505 | 74 | 132 | 0.0 | 2.0 | 0.00 | 1.43 | 0.00 | 94 | 1012.4 |
| 20260510120100 | 74 | 132 | 0.0 | 1.0 | 0.00 | 1.43 | 0.00 | 94 | 1012.1 |
| 20260510114600 | 74 | 132 | 0.0 | 1.0 | 0.00 | 1.43 | 0.00 | 94 | 1012.0 |
| 20260510113111 | 74 | 132 | 0.0 | 1.0 | 0.00 | 1.43 | 0.00 | 94 | 1011.6 |
| 20260510110100 | 74 | 149 | 1.0 | 5.0 | 0.00 | 1.43 | 0.00 | 94 | 1011.2 |
| 20260510104604 | 74 | 148 | 0.0 | 4.0 | 0.00 | 1.43 | 0.00 | 94 | 1011.1 |
| 20260510103105 | 75 | 167 | 2.0 | 6.0 | 0.00 | 1.43 | 0.00 | 94 | 1011.0 |
| 20260510101600 | 75 | 205 | 2.0 | 7.0 | 0.00 | 1.43 | 0.00 | 94 | 1011.0 |
| 20260510100100 | 75 | 178 | 3.0 | 7.0 | 0.00 | 1.43 | 0.00 | 94 | 1010.9 |
| 20260510100005 | 75 | 146 | 4.0 | 7.0 | 0.00 | 1.43 | 0.00 | 94 | 1010.9 |
| 20260510094559 | 75 | 163 | 2.0 | 6.0 | 0.00 | 1.43 | 0.00 | 94 | 1010.9 |
| 20260510093112 | 75 | 171 | 2.0 | 5.0 | 0.00 | 1.43 | 0.00 | 94 | 1010.9 |
| 20260510091559 | 75 | 165 | 1.0 | 4.0 | 0.00 | 1.43 | 0.00 | 94 | 1011.0 |
| 20260510090116 | 75 | 164 | 2.0 | 7.0 | 0.00 | 1.43 | 0.00 | 94 | 1011.1 |
| 20260510090002 | 75 | 158 | 1.0 | 5.0 | 0.00 | 1.43 | 0.00 | 94 | 1011.1 |
| 20260510084601 | 74 | 151 | 1.0 | 5.0 | 0.00 | 1.43 | 0.00 | 94 | 1011.1 |
| 20260510083111 | 74 | 146 | 0.0 | 2.0 | 0.00 | 1.43 | 0.00 | 94 | 1011.2 |
| 20260510081610 | 74 | 146 | 0.0 | 0.0 | 0.00 | 1.43 | 0.00 | 93 | 1011.1 |
| 20260510074604 | 75 | 146 | 0.0 | 1.0 | 0.00 | 1.43 | 0.00 | 93 | 1011.0 |
| 20260510073059 | 75 | 146 | 0.0 | 1.0 | 0.00 | 1.43 | 0.00 | 93 | 1011.1 |
| 20260510071559 | 75 | 149 | 0.0 | 1.0 | 0.00 | 1.43 | 0.00 | 93 | 1011.0 |
| 20260510070100 | 75 | 134 | 0.0 | 3.0 | 0.00 | 1.43 | 0.00 | 93 | 1011.1 |
| 20260510064608 | 75 | 157 | 0.0 | 5.0 | 0.00 | 1.43 | 0.00 | 93 | 1011.0 |
| 20260510063100 | 75 | 169 | 0.0 | 5.0 | 0.00 | 1.43 | 0.00 | 92 | 1011.2 |
| 20260510061559 | 75 | 72 | 0.0 | 3.0 | 0.00 | 1.43 | 0.00 | 92 | 1011.3 |
| 20260510060059 | 75 | 131 | 0.0 | 3.0 | 0.00 | 1.43 | 0.00 | 92 | 1011.4 |
| 20260510054600 | 75 | 133 | 0.0 | 2.0 | 0.00 | 1.43 | 0.00 | 91 | 1011.5 |
| 20260510053059 | 75 | 135 | 0.0 | 3.0 | 0.00 | 1.43 | 0.00 | 91 | 1011.5 |
| 20260510051558 | 75 | 140 | 1.0 | 4.0 | 0.00 | 1.43 | 0.00 | 91 | 1011.5 |
| 20260510050004 | 74 | 86 | 0.0 | 3.0 | 0.00 | 1.43 | 0.00 | 91 | 1011.5 |
| 20260510044638 | 74 | 126 | 0.0 | 3.0 | 0.00 | 1.43 | 1.43 | 91 | 1011.5 |
| 20260510043101 | 74 | 69 | 0.0 | 3.0 | 0.01 | 1.43 | 1.43 | 90 | 1011.7 |
| 20260510041559 | 74 | 63 | 0.0 | 2.0 | 0.01 | 1.43 | 1.43 | 90 | 1011.7 |
| 20260510040108 | 74 | 63 | 0.0 | 1.0 | 0.01 | 1.43 | 1.43 | 90 | 1011.5 |
| 20260510034602 | 74 | 63 | 0.0 | 2.0 | 0.01 | 1.43 | 1.43 | 89 | 1011.6 |
| 20260510033101 | 74 | 63 | 0.0 | 3.0 | 0.00 | 1.42 | 1.42 | 90 | 1011.9 |
| 20260510031559 | 74 | 63 | 1.0 | 3.0 | 0.00 | 1.42 | 1.42 | 90 | 1011.6 |
| 20260510030100 | 74 | 67 | 0.0 | 3.0 | 0.00 | 1.42 | 1.42 | 90 | 1011.1 |
| 20260510024559 | 74 | 67 | 0.0 | 2.0 | 0.00 | 1.42 | 1.42 | 90 | 1010.6 |
| 20260510023105 | 75 | 67 | 1.0 | 4.0 | 0.00 | 1.42 | 1.42 | 90 | 1010.3 |
| 20260510021559 | 74 | 65 | 0.0 | 3.0 | 0.00 | 1.42 | 1.42 | 89 | 1010.1 |
| 20260510020100 | 74 | 192 | 1.0 | 4.0 | 0.00 | 1.42 | 1.42 | 90 | 1009.5 |
| 20260510020002 | 74 | 192 | 1.0 | 4.0 | 0.00 | 1.42 | 1.42 | 90 | 1009.5 |
| 20260510014559 | 74 | 187 | 0.0 | 0.0 | 0.00 | 1.42 | 1.42 | 89 | 1008.9 |
| 20260510013059 | 74 | 187 | 0.0 | 2.0 | 0.00 | 1.42 | 1.42 | 89 | 1009.0 |
| 20260510010136 | 72 | 178 | 2.0 | 8.0 | 0.01 | 1.42 | 1.42 | 89 | 1008.9 |
| 20260510010001 | 72 | 178 | 3.0 | 8.0 | 0.01 | 1.42 | 1.42 | 90 | 1008.9 |
| 20260510004607 | 70 | 49 | 2.0 | 4.0 | 0.26 | 1.42 | 1.42 | 91 | 1008.6 |
| 20260510003100 | 70 | 49 | 0.0 | 6.0 | 1.27 | 1.42 | 1.42 | 91 | 1008.6 |
| 20260510001604 | 69 | 52 | 2.0 | 7.0 | 1.42 | 1.42 | 1.42 | 90 | 1009.1 |
| 20260510000059 | 70 | 123 | 3.0 | 15.0 | 1.41 | 1.41 | 1.41 | 90 | 1008.8 |
| 20260509234642 | 71 | 56 | 1.0 | 23.0 | 1.15 | 1.15 | 1.15 | 87 | 1009.1 |
| 20260509233100 | 80 | 94 | 4.0 | 13.0 | 0.15 | 0.15 | 0.15 | 75 | 1009.0 |
| 20260509231558 | 86 | 325 | 2.0 | 8.0 | 0.00 | 0.00 | 0.00 | 75 | 1008.3 |